createdAt,value
2019-04-14T00:02:22.824Z,99.90
2019-04-14T00:04:53.382Z,99.90
2019-04-14T00:07:25.407Z,99.90
2019-04-14T00:09:56.302Z,99.90
2019-04-14T00:12:27.330Z,99.90
2019-04-14T00:14:57.883Z,99.90
2019-04-14T00:17:28.757Z,99.90
2019-04-14T00:19:59.217Z,99.90
2019-04-14T00:22:30.689Z,99.90
2019-04-14T00:25:02.370Z,99.90
2019-04-14T00:27:32.819Z,99.90
2019-04-14T00:30:06.190Z,99.90
2019-04-14T00:32:44.587Z,99.90
2019-04-14T00:35:32.316Z,99.90
2019-04-14T00:38:17.245Z,99.90
2019-04-14T00:41:05.284Z,99.90
2019-04-14T00:43:57.444Z,99.90
2019-04-14T00:46:36.790Z,99.90
2019-04-14T00:49:07.438Z,99.90
2019-04-14T00:51:39.364Z,99.90
2019-04-14T00:54:10.877Z,99.90
2019-04-14T00:56:45.402Z,99.90
2019-04-14T00:59:15.774Z,99.90
2019-04-14T01:01:49.169Z,99.90
2019-04-14T01:04:19.477Z,99.90
2019-04-14T01:06:51.070Z,99.90
2019-04-14T01:09:22.147Z,99.90
2019-04-14T01:11:53.149Z,99.90
2019-04-14T01:14:23.712Z,99.90
2019-04-14T01:16:54.387Z,99.90
2019-04-14T01:19:24.716Z,99.90
2019-04-14T01:21:55.342Z,99.90
2019-04-14T01:24:27.152Z,99.90
2019-04-14T01:27:01.617Z,99.90
2019-04-14T01:29:32.145Z,99.90
2019-04-14T01:32:02.552Z,99.90
2019-04-14T01:34:33.208Z,99.90
2019-04-14T01:37:05.013Z,99.90
2019-04-14T01:39:35.714Z,99.90
2019-04-14T01:42:07.134Z,99.90
2019-04-14T01:44:37.586Z,99.90
2019-04-14T01:47:09.957Z,99.90
2019-04-14T01:49:41.826Z,99.90
2019-04-14T01:52:50.111Z,99.90
2019-04-14T01:55:33.395Z,99.90
2019-04-14T01:58:18.696Z,99.90
2019-04-14T02:01:17.648Z,99.90
2019-04-14T02:03:48.430Z,99.90
2019-04-14T02:06:20.077Z,99.90
2019-04-14T02:08:53.019Z,99.90
2019-04-14T02:11:24.752Z,99.90
2019-04-14T02:13:55.364Z,99.90
2019-04-14T02:16:32.775Z,99.90
2019-04-14T02:18:58.664Z,99.90
2019-04-14T02:21:30.281Z,99.90
2019-04-14T02:24:00.650Z,99.90
2019-04-14T02:26:31.033Z,99.90
2019-04-14T02:29:01.964Z,99.90
2019-04-14T02:31:57.042Z,99.90
2019-04-14T02:37:04.700Z,99.90
2019-04-14T02:39:42.043Z,99.90
2019-04-14T02:47:43.142Z,99.90
2019-04-14T02:49:51.480Z,99.90
2019-04-14T02:59:58.900Z,99.90
2019-04-14T03:02:40.861Z,99.90
2019-04-14T03:05:02.497Z,99.90
2019-04-14T03:07:46.148Z,99.90
2019-04-14T03:12:52.778Z,99.90
2019-04-14T03:15:28.017Z,99.90
2019-04-14T03:18:24.442Z,99.90
2019-04-14T03:21:09.187Z,99.90
2019-04-14T03:24:04.951Z,99.90
2019-04-14T03:29:20.773Z,99.90
2019-04-14T03:37:31.778Z,99.90
2019-04-14T03:39:45.947Z,99.90
2019-04-14T03:44:41.840Z,99.90
2019-04-14T03:47:13.537Z,99.90
2019-04-14T03:49:45.406Z,99.90
2019-04-14T03:52:13.345Z,99.90
2019-04-14T03:54:40.420Z,99.90
2019-04-14T03:56:55.458Z,99.90
2019-04-14T03:59:26.433Z,99.90
2019-04-14T04:01:58.502Z,99.90
2019-04-14T04:04:29.425Z,99.90
2019-04-14T04:07:01.861Z,99.90
2019-04-14T04:09:36.533Z,99.90
2019-04-14T04:12:09.847Z,99.90
2019-04-14T04:14:40.196Z,99.90
2019-04-14T04:17:29.801Z,99.90
2019-04-14T04:20:37.315Z,99.90
2019-04-14T04:23:20.461Z,99.90
2019-04-14T04:26:12.939Z,99.90
2019-04-14T04:29:15.708Z,99.90
2019-04-14T04:32:05.684Z,99.90
2019-04-14T04:34:59.945Z,99.90
2019-04-14T04:37:43.281Z,99.90
2019-04-14T04:40:20.669Z,99.90
2019-04-14T04:42:52.586Z,99.90
2019-04-14T04:45:26.191Z,99.90
2019-04-14T04:47:58.574Z,99.90
2019-04-14T04:50:30.271Z,99.90
2019-04-14T04:53:02.673Z,99.90
2019-04-14T04:55:32.994Z,99.90
2019-04-14T04:58:05.630Z,99.90
2019-04-14T05:00:37.273Z,99.90
2019-04-14T05:03:07.950Z,99.90
2019-04-14T05:06:27.016Z,99.90
2019-04-14T05:09:03.391Z,99.90
2019-04-14T05:11:40.412Z,99.90
2019-04-14T05:14:15.178Z,99.90
2019-04-14T05:16:46.135Z,99.90
2019-04-14T05:19:25.731Z,99.90
2019-04-14T05:21:50.151Z,99.90
2019-04-14T05:24:22.121Z,99.90
2019-04-14T05:26:52.746Z,99.90
2019-04-14T05:29:23.422Z,99.90
2019-04-14T05:31:55.434Z,99.90
2019-04-14T05:34:26.141Z,99.90
2019-04-14T05:36:56.586Z,99.90
2019-04-14T05:39:29.081Z,99.90
2019-04-14T05:42:09.431Z,99.90
2019-04-14T05:44:34.053Z,99.90
2019-04-14T05:47:04.758Z,99.90
2019-04-14T05:49:41.188Z,99.90
2019-04-14T05:52:07.758Z,99.90
2019-04-14T05:54:38.394Z,99.90
2019-04-14T05:57:08.843Z,99.90
2019-04-14T05:59:39.607Z,99.90
2019-04-14T06:02:11.470Z,99.90
2019-04-14T06:04:42.254Z,99.90
2019-04-14T06:07:12.793Z,99.90
2019-04-14T06:09:43.076Z,99.90
2019-04-14T06:12:13.406Z,99.90
2019-04-14T06:14:43.671Z,99.90
2019-04-14T06:17:13.952Z,99.90
2019-04-14T06:19:44.581Z,99.90
2019-04-14T06:22:15.617Z,99.90
2019-04-14T06:24:45.970Z,99.90
2019-04-14T06:27:16.163Z,99.90
2019-04-14T06:29:47.491Z,99.90
2019-04-14T06:32:33.628Z,99.90
2019-04-14T06:35:29.343Z,99.90
2019-04-14T06:38:04.532Z,99.90
2019-04-14T06:40:57.382Z,99.90
2019-04-14T06:43:28.348Z,99.90
2019-04-14T06:45:59.308Z,99.90
2019-04-14T06:48:29.650Z,99.90
2019-04-14T06:50:59.921Z,99.90
2019-04-14T06:53:30.174Z,99.90
2019-04-14T06:56:01.736Z,99.90
2019-04-14T06:58:32.329Z,99.90
2019-04-14T07:01:02.772Z,99.90
2019-04-14T07:03:33.061Z,99.90
2019-04-14T07:06:03.710Z,99.90
2019-04-14T07:08:33.953Z,99.90
2019-04-14T07:11:05.155Z,99.90
2019-04-14T07:13:35.422Z,99.90
2019-04-14T07:16:06.496Z,99.90
2019-04-14T07:18:37.168Z,99.90
2019-04-14T07:21:08.059Z,99.90
2019-04-14T07:23:39.800Z,99.90
2019-04-14T07:26:13.341Z,99.90
2019-04-14T07:28:56.131Z,99.90
2019-04-14T07:31:34.132Z,99.90
2019-04-14T07:34:32.973Z,99.90
2019-04-14T07:37:19.211Z,99.90
2019-04-14T07:39:54.782Z,99.90
2019-04-14T07:42:41.794Z,99.90
2019-04-14T07:45:37.559Z,99.90
2019-04-14T07:48:15.333Z,99.90
2019-04-14T07:51:01.989Z,99.90
2019-04-14T07:54:01.113Z,99.90
2019-04-14T07:56:49.215Z,99.90
2019-04-14T07:59:23.993Z,99.90
2019-04-14T08:02:19.764Z,99.90
2019-04-14T08:05:11.645Z,99.90
2019-04-14T08:07:43.031Z,99.90
2019-04-14T08:10:13.467Z,99.90
2019-04-14T08:12:44.351Z,99.90
2019-04-14T08:15:14.813Z,99.90
2019-04-14T08:17:45.981Z,99.90
2019-04-14T08:20:27.386Z,99.90
2019-04-14T08:22:50.501Z,99.90
2019-04-14T08:25:20.806Z,99.90
2019-04-14T08:27:51.008Z,99.90
2019-04-14T08:30:21.800Z,99.90
2019-04-14T08:32:52.667Z,99.90
2019-04-14T08:35:23.201Z,99.90
2019-04-14T08:37:53.873Z,99.90
2019-04-14T08:40:24.366Z,99.90
2019-04-14T08:43:12.447Z,99.90
2019-04-14T08:45:57.720Z,99.90
2019-04-14T08:48:43.857Z,99.90
2019-04-14T08:51:21.401Z,99.90
2019-04-14T08:53:58.898Z,99.90
2019-04-14T08:56:38.511Z,99.90
2019-04-14T08:59:28.159Z,99.90
2019-04-14T09:02:20.359Z,99.90
2019-04-14T09:05:10.048Z,99.90
2019-04-14T09:07:53.083Z,99.90
2019-04-14T09:10:29.798Z,99.90
2019-04-14T09:13:00.307Z,99.90
2019-04-14T09:15:30.784Z,99.90
2019-04-14T09:18:01.640Z,99.90
2019-04-14T09:20:33.611Z,99.90
2019-04-14T09:23:04.007Z,99.90
2019-04-14T09:25:35.031Z,99.90
2019-04-14T09:28:06.557Z,99.90
2019-04-14T09:30:37.587Z,99.90
2019-04-14T09:33:08.310Z,99.90
2019-04-14T09:35:38.959Z,99.90
2019-04-14T09:38:09.469Z,99.90
2019-04-14T09:40:40.279Z,99.90
2019-04-14T09:43:10.860Z,99.90
2019-04-14T09:45:41.181Z,99.90
2019-04-14T09:48:11.513Z,99.90
2019-04-14T09:50:42.034Z,99.90
2019-04-14T09:53:12.394Z,99.90
2019-04-14T09:55:43.091Z,99.90
2019-04-14T09:58:16.561Z,99.90
2019-04-14T10:00:47.025Z,99.90
2019-04-14T10:03:17.735Z,99.90
2019-04-14T10:05:48.727Z,99.90
2019-04-14T10:08:19.664Z,99.90
2019-04-14T10:10:53.803Z,99.90
2019-04-14T10:13:24.926Z,99.90
2019-04-14T10:15:55.578Z,99.90
2019-04-14T10:18:25.906Z,99.90
2019-04-14T10:20:57.551Z,99.90
2019-04-14T10:23:27.810Z,99.90
2019-04-14T10:25:58.714Z,99.90
2019-04-14T10:28:29.798Z,99.90
2019-04-14T10:31:00.628Z,99.90
2019-04-14T10:33:30.976Z,99.90
2019-04-14T10:36:01.602Z,99.90
2019-04-14T10:38:32.615Z,99.90
2019-04-14T10:41:02.954Z,99.90
2019-04-14T10:43:33.558Z,99.90
2019-04-14T10:46:03.759Z,99.90
2019-04-14T10:48:34.094Z,99.90
2019-04-14T10:51:04.437Z,99.90
2019-04-14T10:53:35.091Z,99.90
2019-04-14T10:56:05.371Z,99.90
2019-04-14T10:58:35.606Z,99.90
2019-04-14T11:01:06.069Z,99.90
2019-04-14T11:03:36.693Z,99.90
2019-04-14T11:06:14.662Z,99.90
2019-04-14T11:08:45.176Z,99.90
2019-04-14T11:11:15.884Z,99.90
2019-04-14T11:13:46.536Z,99.90
2019-04-14T11:16:16.774Z,99.90
2019-04-14T11:18:47.030Z,99.90
2019-04-14T11:21:17.279Z,99.90
2019-04-14T11:23:47.939Z,99.90
2019-04-14T11:26:18.553Z,99.90
2019-04-14T11:28:48.925Z,99.90
2019-04-14T11:31:38.998Z,99.90
2019-04-14T11:34:09.970Z,99.90
2019-04-14T11:37:08.304Z,99.90
2019-04-14T11:39:39.224Z,99.90
2019-04-14T11:42:09.548Z,99.90
2019-04-14T11:44:39.711Z,99.90
2019-04-14T11:47:10.480Z,99.90
2019-04-14T11:49:40.799Z,99.90
2019-04-14T11:52:11.348Z,99.90
2019-04-14T11:54:41.973Z,99.90
2019-04-14T11:57:12.638Z,99.90
2019-04-14T11:59:52.276Z,99.90
2019-04-14T12:02:40.438Z,99.90
2019-04-14T12:05:32.839Z,99.90
2019-04-14T12:08:11.972Z,99.90
2019-04-14T12:10:42.263Z,99.90
2019-04-14T12:13:12.558Z,99.90
2019-04-14T12:15:43.194Z,99.90
2019-04-14T12:18:13.805Z,99.90
2019-04-14T12:20:44.179Z,99.90
2019-04-14T12:23:16.086Z,99.90
2019-04-14T12:25:46.595Z,99.90
2019-04-14T12:28:17.309Z,99.90
2019-04-14T12:30:48.862Z,99.90
2019-04-14T12:33:19.541Z,99.90
2019-04-14T12:35:50.908Z,99.90
2019-04-14T12:38:21.193Z,99.90
2019-04-14T12:40:52.439Z,99.90
2019-04-14T12:43:33.410Z,99.90
2019-04-14T12:46:29.064Z,99.90
2019-04-14T12:49:04.305Z,99.90
2019-04-14T12:51:37.737Z,99.90
2019-04-14T12:54:08.577Z,99.90
2019-04-14T12:56:39.294Z,99.90
2019-04-14T12:59:17.465Z,99.90
2019-04-14T13:02:07.290Z,99.90
2019-04-14T13:04:38.061Z,99.90
2019-04-14T13:07:08.816Z,99.90
2019-04-14T13:09:39.417Z,99.90
2019-04-14T13:12:10.494Z,99.90
2019-04-14T13:14:40.987Z,99.90
2019-04-14T13:17:11.213Z,99.90
2019-04-14T13:19:41.645Z,99.90
2019-04-14T13:22:11.906Z,99.90
2019-04-14T13:24:42.548Z,99.90
2019-04-14T13:27:13.920Z,99.90
2019-04-14T13:29:44.290Z,99.90
2019-04-14T13:32:15.285Z,99.90
2019-04-14T13:34:45.665Z,99.90
2019-04-14T13:37:16.496Z,99.90
2019-04-14T13:39:47.094Z,99.90
2019-04-14T13:42:17.467Z,99.90
2019-04-14T13:44:49.466Z,99.90
2019-04-14T13:47:20.094Z,99.90
2019-04-14T13:49:51.007Z,99.90
2019-04-14T13:52:22.005Z,99.90
2019-04-14T13:54:52.836Z,99.90
2019-04-14T13:57:23.476Z,99.90
2019-04-14T13:59:53.941Z,99.90
2019-04-14T14:02:24.627Z,99.90
2019-04-14T14:04:55.467Z,99.90
2019-04-14T14:07:27.132Z,99.90
2019-04-14T14:09:59.942Z,99.90
2019-04-14T14:12:55.632Z,99.90
2019-04-14T14:15:48.039Z,99.90
2019-04-14T14:18:30.081Z,99.90
2019-04-14T14:21:15.522Z,99.90
2019-04-14T14:24:04.940Z,99.90
2019-04-14T14:26:36.677Z,99.90
2019-04-14T14:29:07.180Z,99.90
2019-04-14T14:31:38.830Z,99.90
2019-04-14T14:34:09.377Z,99.90
2019-04-14T14:36:40.337Z,99.20
2019-04-14T14:39:13.410Z,97.60
2019-04-14T14:41:43.894Z,97.00
2019-04-14T14:44:14.935Z,96.40
2019-04-14T14:47:04.566Z,97.80
2019-04-14T14:49:59.690Z,94.90
2019-04-14T14:52:31.218Z,93.90
2019-04-14T14:55:02.163Z,92.90
2019-04-14T14:57:32.693Z,90.70
2019-04-14T15:00:03.330Z,89.30
2019-04-14T15:02:34.359Z,86.30
2019-04-14T15:05:05.061Z,89.30
2019-04-14T15:07:35.560Z,86.80
2019-04-14T15:10:06.480Z,88.70
2019-04-14T15:12:36.889Z,87.10
2019-04-14T15:15:07.791Z,84.80
2019-04-14T15:17:38.260Z,83.30
2019-04-14T15:20:09.026Z,82.90
2019-04-14T15:22:39.476Z,82.70
2019-04-14T15:25:10.014Z,83.90
2019-04-14T15:27:40.434Z,87.20
2019-04-14T15:30:15.961Z,90.20
2019-04-14T15:32:46.690Z,89.10
2019-04-14T15:35:17.843Z,91.60
2019-04-14T15:37:48.683Z,89.90
2019-04-14T15:40:19.336Z,90.80
2019-04-14T15:42:51.203Z,91.50
2019-04-14T15:45:21.547Z,92.80
2019-04-14T15:47:52.188Z,93.70
2019-04-14T15:50:22.693Z,95.20
2019-04-14T15:52:53.469Z,96.00
2019-04-14T15:55:24.236Z,95.40
2019-04-14T15:58:21.115Z,95.90
2019-04-14T16:01:12.570Z,96.50
2019-04-14T16:03:51.029Z,95.70
2019-04-14T16:06:32.487Z,96.80
2019-04-14T16:09:30.965Z,97.90
2019-04-14T16:12:10.830Z,95.80
2019-04-14T16:15:12.331Z,96.90
2019-04-14T16:17:56.482Z,97.40
2019-04-14T16:20:31.297Z,97.10
2019-04-14T16:23:01.597Z,97.60
2019-04-14T16:25:49.921Z,97.20
2019-04-14T16:28:25.074Z,97.50
2019-04-14T16:31:13.111Z,98.40
2019-04-14T16:34:21.172Z,99.60
2019-04-14T16:36:51.981Z,99.90
2019-04-14T16:39:22.592Z,99.90
2019-04-14T16:41:53.190Z,98.70
2019-04-14T16:44:23.878Z,99.90
2019-04-14T16:46:55.170Z,99.70
2019-04-14T16:49:25.746Z,99.00
2019-04-14T16:52:02.229Z,99.70
2019-04-14T16:54:54.688Z,99.30
2019-04-14T16:57:43.091Z,99.30
2019-04-14T17:00:17.568Z,98.80
2019-04-14T17:02:50.188Z,99.40
2019-04-14T17:05:20.668Z,99.80
2019-04-14T17:07:53.452Z,99.50
2019-04-14T17:10:22.923Z,99.90
2019-04-14T17:12:53.282Z,99.90
2019-04-14T17:15:37.848Z,99.90
2019-04-14T17:18:14.536Z,99.90
2019-04-14T17:20:57.645Z,99.90
2019-04-14T17:23:35.496Z,99.10
2019-04-14T17:26:09.150Z,99.80
2019-04-14T17:28:56.930Z,99.20
2019-04-14T17:31:52.461Z,98.90
2019-04-14T17:34:37.192Z,99.20
2019-04-14T17:37:32.711Z,98.50
2019-04-14T17:40:10.130Z,98.90
2019-04-14T17:42:52.473Z,99.60
2019-04-14T17:45:37.205Z,98.30
2019-04-14T17:48:24.593Z,98.00
2019-04-14T17:51:03.430Z,98.00
2019-04-14T17:53:41.347Z,98.80
2019-04-14T17:56:15.847Z,99.90
2019-04-14T17:58:57.734Z,99.10
2019-04-14T18:01:47.015Z,99.80
2019-04-14T18:04:23.348Z,99.90
2019-04-14T18:06:58.631Z,99.90
2019-04-14T18:09:44.247Z,99.90
2019-04-14T18:12:51.485Z,99.90
2019-04-14T18:15:52.476Z,99.90
2019-04-14T18:18:44.926Z,99.90
2019-04-14T18:21:15.876Z,99.90
2019-04-14T18:23:46.489Z,99.90
2019-04-14T18:26:17.405Z,99.90
2019-04-14T18:28:56.425Z,99.90
2019-04-14T18:31:36.798Z,99.90
2019-04-14T18:34:29.098Z,99.90
2019-04-14T18:37:07.407Z,99.90
2019-04-14T18:40:08.887Z,99.90
2019-04-14T18:42:57.111Z,99.90
2019-04-14T18:45:36.826Z,99.90
2019-04-14T18:48:44.434Z,99.90
2019-04-14T18:51:22.828Z,99.90
2019-04-14T18:53:58.969Z,99.90
2019-04-14T18:56:45.650Z,99.90
2019-04-14T18:59:28.662Z,99.90
2019-04-14T19:01:59.037Z,99.90
2019-04-14T19:04:29.344Z,99.90
2019-04-14T19:06:59.601Z,99.90
2019-04-14T19:09:30.288Z,99.90
2019-04-14T19:12:18.087Z,99.90
2019-04-14T19:14:50.200Z,99.90
2019-04-14T19:17:27.311Z,99.90
2019-04-14T19:20:01.847Z,99.90
2019-04-14T19:22:29.750Z,99.90
2019-04-14T19:25:07.768Z,99.90
2019-04-14T19:27:32.783Z,99.90
2019-04-14T19:30:03.401Z,99.90
2019-04-14T19:32:34.150Z,99.90
2019-04-14T19:35:04.901Z,99.90
2019-04-14T19:37:38.422Z,99.90
2019-04-14T19:40:09.322Z,99.90
2019-04-14T19:42:39.599Z,99.90
2019-04-14T19:45:10.306Z,99.90
2019-04-14T19:47:40.629Z,99.90
2019-04-14T19:50:12.538Z,99.90
2019-04-14T19:52:43.218Z,99.90
2019-04-14T19:55:20.213Z,99.90
2019-04-14T19:57:46.164Z,99.90
2019-04-14T20:00:16.689Z,99.90
2019-04-14T20:02:47.516Z,99.90
2019-04-14T20:05:17.986Z,99.90
2019-04-14T20:07:51.601Z,99.90
2019-04-14T20:10:30.813Z,99.90
2019-04-14T20:13:02.025Z,99.90
2019-04-14T20:15:37.687Z,99.90
2019-04-14T20:18:14.044Z,99.90
2019-04-14T20:21:02.459Z,99.90
2019-04-14T20:23:52.010Z,99.90
2019-04-14T20:26:44.453Z,99.90
2019-04-14T20:29:19.322Z,99.90
2019-04-14T20:31:59.685Z,99.90
2019-04-14T20:34:31.756Z,99.90
2019-04-14T20:37:04.724Z,99.90
2019-04-14T20:39:36.929Z,99.90
2019-04-14T20:42:08.409Z,99.90
2019-04-14T20:44:39.128Z,99.90
2019-04-14T20:47:10.886Z,99.90
2019-04-14T20:49:42.019Z,99.90
2019-04-14T20:52:13.177Z,99.90
2019-04-14T20:54:43.817Z,99.90
2019-04-14T20:57:14.619Z,99.90
2019-04-14T20:59:46.674Z,99.90
2019-04-14T21:02:39.186Z,99.90
2019-04-14T21:05:32.705Z,99.90
2019-04-14T21:08:22.619Z,99.90
2019-04-14T21:11:03.734Z,99.90
2019-04-14T21:13:52.008Z,99.90
2019-04-14T21:16:34.101Z,99.90
2019-04-14T21:19:24.083Z,99.90
2019-04-14T21:22:22.636Z,99.90
2019-04-14T21:25:27.909Z,99.90
2019-04-14T21:28:15.615Z,99.90
2019-04-14T21:31:03.761Z,99.90
2019-04-14T21:33:56.026Z,99.90
2019-04-14T21:36:51.142Z,99.90
2019-04-14T21:39:41.943Z,99.90
2019-04-14T21:42:13.065Z,99.90
2019-04-14T21:44:43.577Z,99.90
2019-04-14T21:47:14.313Z,99.90
2019-04-14T21:49:44.877Z,99.90
2019-04-14T21:52:28.967Z,99.90
2019-04-14T21:55:01.727Z,99.90
2019-04-14T21:57:56.432Z,99.90
2019-04-14T22:01:31.768Z,99.90
2019-04-14T22:04:13.657Z,99.90
2019-04-14T22:06:49.189Z,99.90
2019-04-14T22:09:38.939Z,99.90
2019-04-14T22:12:09.274Z,99.90
2019-04-14T22:14:39.437Z,99.90
2019-04-14T22:17:09.395Z,99.90
2019-04-14T22:19:39.330Z,99.90
2019-04-14T22:22:09.369Z,99.90
2019-04-14T22:24:39.226Z,99.90
2019-04-14T22:27:09.090Z,99.90
2019-04-14T22:29:38.832Z,99.90
2019-04-14T22:32:08.931Z,99.90
2019-04-14T22:34:38.621Z,99.90
2019-04-14T22:37:08.741Z,99.90
2019-04-14T22:39:39.299Z,99.90
2019-04-14T22:42:09.502Z,99.90
2019-04-14T22:44:39.450Z,99.90
2019-04-14T22:47:09.330Z,99.90
2019-04-14T22:49:39.310Z,99.90
2019-04-14T22:52:09.289Z,99.90
2019-04-14T22:54:39.246Z,99.90
2019-04-14T22:57:09.283Z,99.90
2019-04-14T22:59:39.143Z,99.90
2019-04-14T23:02:14.518Z,99.90
2019-04-14T23:05:10.193Z,99.90
2019-04-14T23:07:58.986Z,99.90
2019-04-14T23:10:43.531Z,99.90
2019-04-14T23:13:19.903Z,99.90
2019-04-14T23:15:56.223Z,99.90
2019-04-14T23:18:43.831Z,99.90
2019-04-14T23:21:38.490Z,99.90
2019-04-14T23:24:17.381Z,99.90
2019-04-14T23:26:52.876Z,99.90
2019-04-14T23:29:18.714Z,99.90
2019-04-14T23:31:48.654Z,99.90
2019-04-14T23:34:18.482Z,99.90
2019-04-14T23:36:48.347Z,99.90
2019-04-14T23:39:18.375Z,99.90
2019-04-14T23:41:48.229Z,99.90
2019-04-14T23:44:17.963Z,99.90
2019-04-14T23:46:48.001Z,99.90
2019-04-14T23:49:17.701Z,99.90
2019-04-14T23:51:47.482Z,99.90
2019-04-14T23:54:17.459Z,99.90
2019-04-14T23:56:47.247Z,99.90
2019-04-14T23:59:17.338Z,99.90
